sensor_id;sensor_type;location;lat;lon;timestamp;temperature;humidity
1175;DHT22;576;48.418;10.074;2022-08-21T00:01:51;26.50;69.00
1175;DHT22;576;48.418;10.074;2022-08-21T00:04:20;26.50;69.00
1175;DHT22;576;48.418;10.074;2022-08-21T00:06:56;26.50;68.90
1175;DHT22;576;48.418;10.074;2022-08-21T00:09:25;26.50;68.90
1175;DHT22;576;48.418;10.074;2022-08-21T00:11:53;26.50;68.90
1175;DHT22;576;48.418;10.074;2022-08-21T00:14:21;26.50;68.90
1175;DHT22;576;48.418;10.074;2022-08-21T00:16:50;26.50;68.90
1175;DHT22;576;48.418;10.074;2022-08-21T00:19:23;26.50;68.80
1175;DHT22;576;48.418;10.074;2022-08-21T00:21:52;26.50;68.80
1175;DHT22;576;48.418;10.074;2022-08-21T00:24:23;26.40;68.70
1175;DHT22;576;48.418;10.074;2022-08-21T00:26:51;26.40;68.80
1175;DHT22;576;48.418;10.074;2022-08-21T00:29:20;26.40;68.80
1175;DHT22;576;48.418;10.074;2022-08-21T00:31:48;26.40;68.80
1175;DHT22;576;48.418;10.074;2022-08-21T00:34:17;26.40;68.80
1175;DHT22;576;48.418;10.074;2022-08-21T00:36:45;26.40;68.70
1175;DHT22;576;48.418;10.074;2022-08-21T00:39:13;26.40;68.70
1175;DHT22;576;48.418;10.074;2022-08-21T00:41:43;26.40;68.80
1175;DHT22;576;48.418;10.074;2022-08-21T00:44:13;26.40;68.80
1175;DHT22;576;48.418;10.074;2022-08-21T00:46:42;26.40;68.80
1175;DHT22;576;48.418;10.074;2022-08-21T00:49:11;26.40;68.70
1175;DHT22;576;48.418;10.074;2022-08-21T00:51:43;26.40;68.70
1175;DHT22;576;48.418;10.074;2022-08-21T00:54:13;26.40;68.70
1175;DHT22;576;48.418;10.074;2022-08-21T00:56:50;26.40;68.80
1175;DHT22;576;48.418;10.074;2022-08-21T00:59:21;26.40;68.50
1175;DHT22;576;48.418;10.074;2022-08-21T01:01:51;26.40;68.60
1175;DHT22;576;48.418;10.074;2022-08-21T01:04:20;26.40;68.60
1175;DHT22;576;48.418;10.074;2022-08-21T01:06:48;26.40;68.60
1175;DHT22;576;48.418;10.074;2022-08-21T01:09:18;26.40;68.50
1175;DHT22;576;48.418;10.074;2022-08-21T01:11:48;26.40;68.70
1175;DHT22;576;48.418;10.074;2022-08-21T01:14:17;26.30;68.60
1175;DHT22;576;48.418;10.074;2022-08-21T01:16:48;26.30;68.70
1175;DHT22;576;48.418;10.074;2022-08-21T01:19:19;26.30;68.60
1175;DHT22;576;48.418;10.074;2022-08-21T01:21:49;26.30;68.60
1175;DHT22;576;48.418;10.074;2022-08-21T01:24:18;26.30;68.50
1175;DHT22;576;48.418;10.074;2022-08-21T01:26:46;26.30;68.40
1175;DHT22;576;48.418;10.074;2022-08-21T01:29:23;26.30;68.50
1175;DHT22;576;48.418;10.074;2022-08-21T01:31:54;26.30;68.50
1175;DHT22;576;48.418;10.074;2022-08-21T01:34:22;26.30;68.50
1175;DHT22;576;48.418;10.074;2022-08-21T01:36:52;26.30;68.50
1175;DHT22;576;48.418;10.074;2022-08-21T01:39:20;26.30;68.50
1175;DHT22;576;48.418;10.074;2022-08-21T01:41:49;26.30;68.50
1175;DHT22;576;48.418;10.074;2022-08-21T01:44:20;26.30;68.50
1175;DHT22;576;48.418;10.074;2022-08-21T01:46:50;26.30;68.50
1175;DHT22;576;48.418;10.074;2022-08-21T01:49:19;26.30;68.50
1175;DHT22;576;48.418;10.074;2022-08-21T01:51:47;26.30;68.50
1175;DHT22;576;48.418;10.074;2022-08-21T01:54:17;26.30;68.60
1175;DHT22;576;48.418;10.074;2022-08-21T01:56:47;26.30;68.50
1175;DHT22;576;48.418;10.074;2022-08-21T01:59:16;26.30;68.50
1175;DHT22;576;48.418;10.074;2022-08-21T02:01:44;26.30;68.50
1175;DHT22;576;48.418;10.074;2022-08-21T02:04:13;26.30;68.60
1175;DHT22;576;48.418;10.074;2022-08-21T02:06:41;26.30;68.50
1175;DHT22;576;48.418;10.074;2022-08-21T02:09:11;26.30;68.50
1175;DHT22;576;48.418;10.074;2022-08-21T02:11:42;26.30;68.50
1175;DHT22;576;48.418;10.074;2022-08-21T02:14:13;26.30;68.50
1175;DHT22;576;48.418;10.074;2022-08-21T02:16:58;26.30;68.50
1175;DHT22;576;48.418;10.074;2022-08-21T02:19:35;26.30;68.50
1175;DHT22;576;48.418;10.074;2022-08-21T02:22:07;26.30;68.40
1175;DHT22;576;48.418;10.074;2022-08-21T02:24:36;26.30;68.40
1175;DHT22;576;48.418;10.074;2022-08-21T02:27:22;26.30;68.40
1175;DHT22;576;48.418;10.074;2022-08-21T02:29:53;26.30;68.30
1175;DHT22;576;48.418;10.074;2022-08-21T02:32:21;26.30;68.40
1175;DHT22;576;48.418;10.074;2022-08-21T02:34:49;26.30;68.30
1175;DHT22;576;48.418;10.074;2022-08-21T02:37:18;26.30;68.40
1175;DHT22;576;48.418;10.074;2022-08-21T02:39:46;26.20;68.40
1175;DHT22;576;48.418;10.074;2022-08-21T02:42:15;26.20;68.40
1175;DHT22;576;48.418;10.074;2022-08-21T02:44:44;26.20;68.40
1175;DHT22;576;48.418;10.074;2022-08-21T02:47:14;26.20;68.40
1175;DHT22;576;48.418;10.074;2022-08-21T02:49:42;26.20;68.30
1175;DHT22;576;48.418;10.074;2022-08-21T02:52:10;26.20;68.20
1175;DHT22;576;48.418;10.074;2022-08-21T02:54:38;26.30;68.20
1175;DHT22;576;48.418;10.074;2022-08-21T02:57:07;26.20;68.20
1175;DHT22;576;48.418;10.074;2022-08-21T02:59:35;26.20;68.10
1175;DHT22;576;48.418;10.074;2022-08-21T03:02:05;26.20;68.20
1175;DHT22;576;48.418;10.074;2022-08-21T03:04:33;26.30;68.10
1175;DHT22;576;48.418;10.074;2022-08-21T03:07:02;26.20;68.30
1175;DHT22;576;48.418;10.074;2022-08-21T03:09:32;26.20;68.20
1175;DHT22;576;48.418;10.074;2022-08-21T03:12:00;26.20;68.20
1175;DHT22;576;48.418;10.074;2022-08-21T03:14:28;26.20;68.10
1175;DHT22;576;48.418;10.074;2022-08-21T03:16:57;26.20;68.20
1175;DHT22;576;48.418;10.074;2022-08-21T03:19:26;26.20;68.10
1175;DHT22;576;48.418;10.074;2022-08-21T03:21:54;26.20;68.00
1175;DHT22;576;48.418;10.074;2022-08-21T03:24:23;26.20;68.00
1175;DHT22;576;48.418;10.074;2022-08-21T03:26:51;26.20;68.00
1175;DHT22;576;48.418;10.074;2022-08-21T03:29:19;26.20;67.90
1175;DHT22;576;48.418;10.074;2022-08-21T03:31:47;26.20;68.10
1175;DHT22;576;48.418;10.074;2022-08-21T03:34:15;26.20;68.10
1175;DHT22;576;48.418;10.074;2022-08-21T03:36:45;26.20;68.20
1175;DHT22;576;48.418;10.074;2022-08-21T03:39:13;26.10;68.10
1175;DHT22;576;48.418;10.074;2022-08-21T03:41:41;26.10;68.10
1175;DHT22;576;48.418;10.074;2022-08-21T03:44:09;26.20;68.00
1175;DHT22;576;48.418;10.074;2022-08-21T03:46:38;26.10;68.10
1175;DHT22;576;48.418;10.074;2022-08-21T03:49:07;26.10;68.00
1175;DHT22;576;48.418;10.074;2022-08-21T03:51:35;26.10;68.00
1175;DHT22;576;48.418;10.074;2022-08-21T03:54:05;26.10;67.90
1175;DHT22;576;48.418;10.074;2022-08-21T03:56:33;26.10;68.00
1175;DHT22;576;48.418;10.074;2022-08-21T03:59:01;26.10;68.00
1175;DHT22;576;48.418;10.074;2022-08-21T04:01:30;26.10;68.00
1175;DHT22;576;48.418;10.074;2022-08-21T04:03:58;26.10;68.00
1175;DHT22;576;48.418;10.074;2022-08-21T04:06:27;26.10;68.00
1175;DHT22;576;48.418;10.074;2022-08-21T04:08:59;26.10;68.00
1175;DHT22;576;48.418;10.074;2022-08-21T04:11:29;26.10;67.80
1175;DHT22;576;48.418;10.074;2022-08-21T04:13:57;26.10;67.90
1175;DHT22;576;48.418;10.074;2022-08-21T04:16:25;26.10;67.80
1175;DHT22;576;48.418;10.074;2022-08-21T04:18:53;26.10;67.80
1175;DHT22;576;48.418;10.074;2022-08-21T04:21:21;26.10;67.70
1175;DHT22;576;48.418;10.074;2022-08-21T04:23:50;26.10;67.70
1175;DHT22;576;48.418;10.074;2022-08-21T04:26:18;26.10;67.70
1175;DHT22;576;48.418;10.074;2022-08-21T04:28:48;26.10;67.60
1175;DHT22;576;48.418;10.074;2022-08-21T04:31:16;26.10;67.60
1175;DHT22;576;48.418;10.074;2022-08-21T04:33:44;26.10;67.60
1175;DHT22;576;48.418;10.074;2022-08-21T04:36:13;26.10;67.50
1175;DHT22;576;48.418;10.074;2022-08-21T04:38:41;26.10;67.60
1175;DHT22;576;48.418;10.074;2022-08-21T04:41:10;26.10;67.50
1175;DHT22;576;48.418;10.074;2022-08-21T04:43:39;26.10;67.30
1175;DHT22;576;48.418;10.074;2022-08-21T04:46:09;26.10;67.40
1175;DHT22;576;48.418;10.074;2022-08-21T04:48:39;26.10;67.40
1175;DHT22;576;48.418;10.074;2022-08-21T04:51:11;26.10;67.40
1175;DHT22;576;48.418;10.074;2022-08-21T04:53:45;26.00;67.40
1175;DHT22;576;48.418;10.074;2022-08-21T04:56:17;26.00;67.50
1175;DHT22;576;48.418;10.074;2022-08-21T04:58:47;26.00;67.50
1175;DHT22;576;48.418;10.074;2022-08-21T05:01:19;26.00;67.50
1175;DHT22;576;48.418;10.074;2022-08-21T05:03:51;26.00;67.40
1175;DHT22;576;48.418;10.074;2022-08-21T05:06:20;26.00;67.50
1175;DHT22;576;48.418;10.074;2022-08-21T05:08:51;26.10;67.40
1175;DHT22;576;48.418;10.074;2022-08-21T05:11:28;26.00;67.30
1175;DHT22;576;48.418;10.074;2022-08-21T05:13:57;26.00;67.20
1175;DHT22;576;48.418;10.074;2022-08-21T05:16:27;26.00;67.20
1175;DHT22;576;48.418;10.074;2022-08-21T05:19:03;26.00;67.20
1175;DHT22;576;48.418;10.074;2022-08-21T05:21:33;26.00;67.20
1175;DHT22;576;48.418;10.074;2022-08-21T05:24:01;26.00;67.00
1175;DHT22;576;48.418;10.074;2022-08-21T05:26:30;26.00;67.10
1175;DHT22;576;48.418;10.074;2022-08-21T05:28:58;26.00;67.10
1175;DHT22;576;48.418;10.074;2022-08-21T05:31:29;26.00;67.10
1175;DHT22;576;48.418;10.074;2022-08-21T05:33:57;26.00;67.10
1175;DHT22;576;48.418;10.074;2022-08-21T05:36:29;26.00;67.00
1175;DHT22;576;48.418;10.074;2022-08-21T05:38:57;26.00;66.90
1175;DHT22;576;48.418;10.074;2022-08-21T05:41:25;26.00;67.10
1175;DHT22;576;48.418;10.074;2022-08-21T05:43:54;26.00;66.90
1175;DHT22;576;48.418;10.074;2022-08-21T05:46:22;26.00;66.90
1175;DHT22;576;48.418;10.074;2022-08-21T05:48:51;26.00;66.90
1175;DHT22;576;48.418;10.074;2022-08-21T05:51:19;26.00;67.00
1175;DHT22;576;48.418;10.074;2022-08-21T05:53:48;26.00;66.90
1175;DHT22;576;48.418;10.074;2022-08-21T05:56:16;26.00;66.80
1175;DHT22;576;48.418;10.074;2022-08-21T05:58:45;26.00;66.80
1175;DHT22;576;48.418;10.074;2022-08-21T06:01:13;26.00;66.70
1175;DHT22;576;48.418;10.074;2022-08-21T06:03:42;26.00;66.80
1175;DHT22;576;48.418;10.074;2022-08-21T06:06:12;26.00;66.50
1175;DHT22;576;48.418;10.074;2022-08-21T06:08:40;26.00;66.50
1175;DHT22;576;48.418;10.074;2022-08-21T06:11:09;26.00;66.60
1175;DHT22;576;48.418;10.074;2022-08-21T06:13:37;26.00;66.50
1175;DHT22;576;48.418;10.074;2022-08-21T06:16:07;26.00;66.60
1175;DHT22;576;48.418;10.074;2022-08-21T06:18:37;26.00;66.40
1175;DHT22;576;48.418;10.074;2022-08-21T06:21:06;26.00;66.60
1175;DHT22;576;48.418;10.074;2022-08-21T06:23:36;26.00;66.60
1175;DHT22;576;48.418;10.074;2022-08-21T06:26:06;26.00;66.60
1175;DHT22;576;48.418;10.074;2022-08-21T06:28:35;26.00;66.50
1175;DHT22;576;48.418;10.074;2022-08-21T06:31:11;26.00;66.40
1175;DHT22;576;48.418;10.074;2022-08-21T06:33:40;26.00;66.60
1175;DHT22;576;48.418;10.074;2022-08-21T06:36:08;26.00;66.50
1175;DHT22;576;48.418;10.074;2022-08-21T06:38:38;26.00;66.50
1175;DHT22;576;48.418;10.074;2022-08-21T06:41:07;26.10;66.50
1175;DHT22;576;48.418;10.074;2022-08-21T06:43:36;26.10;66.40
1175;DHT22;576;48.418;10.074;2022-08-21T06:46:06;26.10;66.60
1175;DHT22;576;48.418;10.074;2022-08-21T06:48:35;26.10;66.50
1175;DHT22;576;48.418;10.074;2022-08-21T06:51:06;26.10;66.40
1175;DHT22;576;48.418;10.074;2022-08-21T06:53:34;26.10;66.30
1175;DHT22;576;48.418;10.074;2022-08-21T06:56:07;26.10;66.40
1175;DHT22;576;48.418;10.074;2022-08-21T06:58:35;26.10;66.40
1175;DHT22;576;48.418;10.074;2022-08-21T07:01:06;26.10;66.40
1175;DHT22;576;48.418;10.074;2022-08-21T07:03:37;26.10;66.40
1175;DHT22;576;48.418;10.074;2022-08-21T07:06:07;26.10;66.40
1175;DHT22;576;48.418;10.074;2022-08-21T07:08:36;26.10;66.40
1175;DHT22;576;48.418;10.074;2022-08-21T07:11:11;26.10;66.40
1175;DHT22;576;48.418;10.074;2022-08-21T07:13:40;26.10;66.40
1175;DHT22;576;48.418;10.074;2022-08-21T07:16:09;26.10;66.40
1175;DHT22;576;48.418;10.074;2022-08-21T07:18:37;26.10;66.50
1175;DHT22;576;48.418;10.074;2022-08-21T07:21:06;26.10;66.40
1175;DHT22;576;48.418;10.074;2022-08-21T07:23:37;26.10;66.40
1175;DHT22;576;48.418;10.074;2022-08-21T07:26:07;26.10;66.40
1175;DHT22;576;48.418;10.074;2022-08-21T07:28:35;26.20;66.30
1175;DHT22;576;48.418;10.074;2022-08-21T07:31:08;26.20;66.40
1175;DHT22;576;48.418;10.074;2022-08-21T07:33:37;26.20;66.30
1175;DHT22;576;48.418;10.074;2022-08-21T07:36:06;26.20;66.30
1175;DHT22;576;48.418;10.074;2022-08-21T07:38:34;26.20;66.20
1175;DHT22;576;48.418;10.074;2022-08-21T07:41:08;26.20;66.20
1175;DHT22;576;48.418;10.074;2022-08-21T07:43:39;26.20;66.20
1175;DHT22;576;48.418;10.074;2022-08-21T07:46:12;26.20;66.10
1175;DHT22;576;48.418;10.074;2022-08-21T07:48:41;26.30;66.30
1175;DHT22;576;48.418;10.074;2022-08-21T07:51:11;26.30;66.30
1175;DHT22;576;48.418;10.074;2022-08-21T07:53:41;26.30;66.20
1175;DHT22;576;48.418;10.074;2022-08-21T07:56:10;26.30;66.20
1175;DHT22;576;48.418;10.074;2022-08-21T07:58:39;26.30;66.20
1175;DHT22;576;48.418;10.074;2022-08-21T08:01:07;26.30;66.20
1175;DHT22;576;48.418;10.074;2022-08-21T08:03:35;26.30;66.40
1175;DHT22;576;48.418;10.074;2022-08-21T08:06:07;26.30;66.40
1175;DHT22;576;48.418;10.074;2022-08-21T08:08:39;26.30;66.30
1175;DHT22;576;48.418;10.074;2022-08-21T08:11:08;26.30;66.40
1175;DHT22;576;48.418;10.074;2022-08-21T08:13:43;26.30;66.50
1175;DHT22;576;48.418;10.074;2022-08-21T08:16:12;26.40;66.20
1175;DHT22;576;48.418;10.074;2022-08-21T08:18:40;26.40;66.20
1175;DHT22;576;48.418;10.074;2022-08-21T08:21:09;26.40;66.10
1175;DHT22;576;48.418;10.074;2022-08-21T08:23:37;26.40;66.20
1175;DHT22;576;48.418;10.074;2022-08-21T08:26:06;26.40;66.10
1175;DHT22;576;48.418;10.074;2022-08-21T08:28:34;26.40;66.00
1175;DHT22;576;48.418;10.074;2022-08-21T08:31:07;26.40;66.20
1175;DHT22;576;48.418;10.074;2022-08-21T08:33:35;26.40;66.20
1175;DHT22;576;48.418;10.074;2022-08-21T08:36:12;26.40;66.00
1175;DHT22;576;48.418;10.074;2022-08-21T08:38:41;26.50;65.90
1175;DHT22;576;48.418;10.074;2022-08-21T08:41:12;26.50;66.00
1175;DHT22;576;48.418;10.074;2022-08-21T08:43:47;26.50;66.00
1175;DHT22;576;48.418;10.074;2022-08-21T08:46:20;26.50;65.90
1175;DHT22;576;48.418;10.074;2022-08-21T08:48:57;26.50;66.00
1175;DHT22;576;48.418;10.074;2022-08-21T08:51:36;26.50;65.80
1175;DHT22;576;48.418;10.074;2022-08-21T08:54:10;26.50;66.00
1175;DHT22;576;48.418;10.074;2022-08-21T08:56:39;26.50;65.90
1175;DHT22;576;48.418;10.074;2022-08-21T08:59:15;26.50;66.00
1175;DHT22;576;48.418;10.074;2022-08-21T09:01:48;26.50;65.80
1175;DHT22;576;48.418;10.074;2022-08-21T09:04:22;26.60;65.70
1175;DHT22;576;48.418;10.074;2022-08-21T09:06:58;26.60;65.70
1175;DHT22;576;48.418;10.074;2022-08-21T09:09:38;26.60;65.70
1175;DHT22;576;48.418;10.074;2022-08-21T09:12:14;26.60;66.00
1175;DHT22;576;48.418;10.074;2022-08-21T09:14:51;26.60;65.70
1175;DHT22;576;48.418;10.074;2022-08-21T09:17:40;26.60;65.80
1175;DHT22;576;48.418;10.074;2022-08-21T09:20:19;26.60;65.70
1175;DHT22;576;48.418;10.074;2022-08-21T09:23:01;26.60;65.70
1175;DHT22;576;48.418;10.074;2022-08-21T09:25:42;26.60;65.60
1175;DHT22;576;48.418;10.074;2022-08-21T09:28:13;26.60;65.60
1175;DHT22;576;48.418;10.074;2022-08-21T09:30:42;26.70;65.50
1175;DHT22;576;48.418;10.074;2022-08-21T09:33:12;26.70;65.50
1175;DHT22;576;48.418;10.074;2022-08-21T09:35:50;26.70;65.50
1175;DHT22;576;48.418;10.074;2022-08-21T09:38:27;26.70;65.50
1175;DHT22;576;48.418;10.074;2022-08-21T09:40:59;26.70;65.40
1175;DHT22;576;48.418;10.074;2022-08-21T09:43:31;26.70;65.40
1175;DHT22;576;48.418;10.074;2022-08-21T09:46:09;26.70;65.40
1175;DHT22;576;48.418;10.074;2022-08-21T09:48:44;26.70;65.30
1175;DHT22;576;48.418;10.074;2022-08-21T09:51:15;26.80;65.30
1175;DHT22;576;48.418;10.074;2022-08-21T09:53:46;26.80;65.30
1175;DHT22;576;48.418;10.074;2022-08-21T09:56:24;26.80;65.20
1175;DHT22;576;48.418;10.074;2022-08-21T09:59:20;26.80;65.20
1175;DHT22;576;48.418;10.074;2022-08-21T10:01:50;26.80;65.10
1175;DHT22;576;48.418;10.074;2022-08-21T10:04:23;26.90;65.30
1175;DHT22;576;48.418;10.074;2022-08-21T10:06:51;26.90;65.20
1175;DHT22;576;48.418;10.074;2022-08-21T10:09:24;26.90;65.10
1175;DHT22;576;48.418;10.074;2022-08-21T10:11:58;27.00;65.10
1175;DHT22;576;48.418;10.074;2022-08-21T10:14:47;27.00;65.10
1175;DHT22;576;48.418;10.074;2022-08-21T10:17:24;27.00;65.00
1175;DHT22;576;48.418;10.074;2022-08-21T10:20:03;27.00;65.00
1175;DHT22;576;48.418;10.074;2022-08-21T10:22:40;27.10;64.90
1175;DHT22;576;48.418;10.074;2022-08-21T10:25:18;27.10;64.80
1175;DHT22;576;48.418;10.074;2022-08-21T10:27:55;27.10;64.70
1175;DHT22;576;48.418;10.074;2022-08-21T10:30:36;27.10;64.70
1175;DHT22;576;48.418;10.074;2022-08-21T10:33:16;27.20;64.60
1175;DHT22;576;48.418;10.074;2022-08-21T10:35:57;27.20;64.60
1175;DHT22;576;48.418;10.074;2022-08-21T10:42:10;27.20;64.50
1175;DHT22;576;48.418;10.074;2022-08-21T10:44:46;27.30;64.60
1175;DHT22;576;48.418;10.074;2022-08-21T10:47:22;27.30;64.30
1175;DHT22;576;48.418;10.074;2022-08-21T10:50:07;27.30;64.20
1175;DHT22;576;48.418;10.074;2022-08-21T10:53:00;27.40;64.00
1175;DHT22;576;48.418;10.074;2022-08-21T10:55:35;27.40;64.10
1175;DHT22;576;48.418;10.074;2022-08-21T10:58:10;27.50;64.10
1175;DHT22;576;48.418;10.074;2022-08-21T11:00:41;27.50;64.10
1175;DHT22;576;48.418;10.074;2022-08-21T11:03:17;27.60;63.90
1175;DHT22;576;48.418;10.074;2022-08-21T11:05:51;27.60;63.80
1175;DHT22;576;48.418;10.074;2022-08-21T11:08:27;27.70;63.40
1175;DHT22;576;48.418;10.074;2022-08-21T11:10:59;27.70;63.30
1175;DHT22;576;48.418;10.074;2022-08-21T11:13:38;27.80;63.40
1175;DHT22;576;48.418;10.074;2022-08-21T11:16:16;27.80;63.10
1175;DHT22;576;48.418;10.074;2022-08-21T11:18:49;27.80;63.10
1175;DHT22;576;48.418;10.074;2022-08-21T11:21:35;27.90;63.10
1175;DHT22;576;48.418;10.074;2022-08-21T11:24:18;28.00;63.00
1175;DHT22;576;48.418;10.074;2022-08-21T11:26:52;28.10;62.70
1175;DHT22;576;48.418;10.074;2022-08-21T11:29:26;28.20;62.50
1175;DHT22;576;48.418;10.074;2022-08-21T11:32:06;28.20;62.10
1175;DHT22;576;48.418;10.074;2022-08-21T11:34:51;28.30;62.30
1175;DHT22;576;48.418;10.074;2022-08-21T11:37:36;28.50;62.10
1175;DHT22;576;48.418;10.074;2022-08-21T11:40:24;28.70;61.10
1175;DHT22;576;48.418;10.074;2022-08-21T11:43:01;28.80;60.40
1175;DHT22;576;48.418;10.074;2022-08-21T11:45:41;28.90;59.90
1175;DHT22;576;48.418;10.074;2022-08-21T11:48:20;29.10;59.70
1175;DHT22;576;48.418;10.074;2022-08-21T11:50:52;29.20;59.30
1175;DHT22;576;48.418;10.074;2022-08-21T11:53:26;29.30;59.10
1175;DHT22;576;48.418;10.074;2022-08-21T11:56:05;29.40;58.60
1175;DHT22;576;48.418;10.074;2022-08-21T11:58:38;29.60;58.40
1175;DHT22;576;48.418;10.074;2022-08-21T12:01:09;29.70;57.90
1175;DHT22;576;48.418;10.074;2022-08-21T12:03:41;29.90;57.60
1175;DHT22;576;48.418;10.074;2022-08-21T12:06:12;30.00;56.50
1175;DHT22;576;48.418;10.074;2022-08-21T12:08:58;30.10;56.10
1175;DHT22;576;48.418;10.074;2022-08-21T12:11:28;30.10;52.80
1175;DHT22;576;48.418;10.074;2022-08-21T12:13:59;30.00;53.50
1175;DHT22;576;48.418;10.074;2022-08-21T12:16:30;30.10;51.30
1175;DHT22;576;48.418;10.074;2022-08-21T12:19:06;30.20;51.50
1175;DHT22;576;48.418;10.074;2022-08-21T12:21:48;30.20;52.00
1175;DHT22;576;48.418;10.074;2022-08-21T12:24:36;30.30;50.80
1175;DHT22;576;48.418;10.074;2022-08-21T12:27:22;30.40;51.60
1175;DHT22;576;48.418;10.074;2022-08-21T12:29:55;30.40;51.60
1175;DHT22;576;48.418;10.074;2022-08-21T12:32:26;30.50;50.70
1175;DHT22;576;48.418;10.074;2022-08-21T12:35:00;30.60;51.40
1175;DHT22;576;48.418;10.074;2022-08-21T12:37:37;30.60;50.40
1175;DHT22;576;48.418;10.074;2022-08-21T12:40:14;30.60;49.60
1175;DHT22;576;48.418;10.074;2022-08-21T12:42:51;30.60;49.30
1175;DHT22;576;48.418;10.074;2022-08-21T12:45:29;30.60;50.20
1175;DHT22;576;48.418;10.074;2022-08-21T12:48:03;30.60;50.60
1175;DHT22;576;48.418;10.074;2022-08-21T12:50:37;30.50;50.60
1175;DHT22;576;48.418;10.074;2022-08-21T12:53:08;30.50;50.50
1175;DHT22;576;48.418;10.074;2022-08-21T12:55:47;30.40;50.80
1175;DHT22;576;48.418;10.074;2022-08-21T12:58:20;30.20;51.60
1175;DHT22;576;48.418;10.074;2022-08-21T13:00:51;30.20;50.50
1175;DHT22;576;48.418;10.074;2022-08-21T13:03:21;30.20;50.80
1175;DHT22;576;48.418;10.074;2022-08-21T13:05:50;30.10;50.50
1175;DHT22;576;48.418;10.074;2022-08-21T13:08:20;30.20;50.60
1175;DHT22;576;48.418;10.074;2022-08-21T13:10:57;30.10;51.00
1175;DHT22;576;48.418;10.074;2022-08-21T13:13:39;30.00;51.50
1175;DHT22;576;48.418;10.074;2022-08-21T13:16:20;29.80;51.90
1175;DHT22;576;48.418;10.074;2022-08-21T13:18:54;29.70;52.40
1175;DHT22;576;48.418;10.074;2022-08-21T13:21:28;29.70;52.50
1175;DHT22;576;48.418;10.074;2022-08-21T13:24:16;29.70;52.20
1175;DHT22;576;48.418;10.074;2022-08-21T13:27:17;29.70;52.40
1175;DHT22;576;48.418;10.074;2022-08-21T13:29:47;29.70;52.70
1175;DHT22;576;48.418;10.074;2022-08-21T13:32:22;29.70;52.70
1175;DHT22;576;48.418;10.074;2022-08-21T13:34:53;29.70;52.80
1175;DHT22;576;48.418;10.074;2022-08-21T13:37:23;29.60;53.10
1175;DHT22;576;48.418;10.074;2022-08-21T13:39:52;29.60;53.00
1175;DHT22;576;48.418;10.074;2022-08-21T13:42:21;29.60;52.70
1175;DHT22;576;48.418;10.074;2022-08-21T13:44:52;29.70;52.70
1175;DHT22;576;48.418;10.074;2022-08-21T13:47:21;29.70;52.90
1175;DHT22;576;48.418;10.074;2022-08-21T13:49:51;29.60;52.60
1175;DHT22;576;48.418;10.074;2022-08-21T13:52:26;29.50;53.00
1175;DHT22;576;48.418;10.074;2022-08-21T13:54:57;29.40;53.10
1175;DHT22;576;48.418;10.074;2022-08-21T13:57:28;29.40;53.20
1175;DHT22;576;48.418;10.074;2022-08-21T14:00:13;29.40;53.00
1175;DHT22;576;48.418;10.074;2022-08-21T14:02:45;29.40;53.30
1175;DHT22;576;48.418;10.074;2022-08-21T14:05:19;29.40;53.50
1175;DHT22;576;48.418;10.074;2022-08-21T14:07:50;29.40;53.60
1175;DHT22;576;48.418;10.074;2022-08-21T14:10:21;29.40;53.90
1175;DHT22;576;48.418;10.074;2022-08-21T14:12:52;29.30;54.10
1175;DHT22;576;48.418;10.074;2022-08-21T14:15:27;29.30;54.30
1175;DHT22;576;48.418;10.074;2022-08-21T14:18:07;29.20;54.70
1175;DHT22;576;48.418;10.074;2022-08-21T14:20:37;29.30;54.40
1175;DHT22;576;48.418;10.074;2022-08-21T14:23:05;29.30;54.40
1175;DHT22;576;48.418;10.074;2022-08-21T14:25:39;29.40;54.20
1175;DHT22;576;48.418;10.074;2022-08-21T14:28:19;29.40;54.50
1175;DHT22;576;48.418;10.074;2022-08-21T14:30:56;29.40;54.40
1175;DHT22;576;48.418;10.074;2022-08-21T14:33:26;29.30;54.70
1175;DHT22;576;48.418;10.074;2022-08-21T14:35:55;29.30;55.00
1175;DHT22;576;48.418;10.074;2022-08-21T14:38:24;29.30;54.20
1175;DHT22;576;48.418;10.074;2022-08-21T14:40:56;29.20;54.90
1175;DHT22;576;48.418;10.074;2022-08-21T14:43:26;29.10;54.70
1175;DHT22;576;48.418;10.074;2022-08-21T14:45:56;29.20;54.10
1175;DHT22;576;48.418;10.074;2022-08-21T14:48:24;29.20;53.80
1175;DHT22;576;48.418;10.074;2022-08-21T14:50:52;29.10;54.20
1175;DHT22;576;48.418;10.074;2022-08-21T14:53:26;29.00;53.80
1175;DHT22;576;48.418;10.074;2022-08-21T14:55:54;28.90;54.90
1175;DHT22;576;48.418;10.074;2022-08-21T14:58:38;28.80;54.90
1175;DHT22;576;48.418;10.074;2022-08-21T15:01:10;28.70;55.30
1175;DHT22;576;48.418;10.074;2022-08-21T15:03:39;28.60;55.10
1175;DHT22;576;48.418;10.074;2022-08-21T15:06:08;28.60;54.70
1175;DHT22;576;48.418;10.074;2022-08-21T15:08:37;28.50;54.20
1175;DHT22;576;48.418;10.074;2022-08-21T15:11:07;28.60;54.60
1175;DHT22;576;48.418;10.074;2022-08-21T15:13:41;28.60;55.10
1175;DHT22;576;48.418;10.074;2022-08-21T15:16:11;28.60;53.90
1175;DHT22;576;48.418;10.074;2022-08-21T15:18:40;28.60;54.50
1175;DHT22;576;48.418;10.074;2022-08-21T15:21:09;28.60;54.60
1175;DHT22;576;48.418;10.074;2022-08-21T15:23:37;28.70;53.70
1175;DHT22;576;48.418;10.074;2022-08-21T15:26:10;28.60;54.90
1175;DHT22;576;48.418;10.074;2022-08-21T15:28:38;28.70;55.40
1175;DHT22;576;48.418;10.074;2022-08-21T15:31:07;28.70;55.70
1175;DHT22;576;48.418;10.074;2022-08-21T15:33:37;28.80;55.10
1175;DHT22;576;48.418;10.074;2022-08-21T15:36:05;28.80;55.40
1175;DHT22;576;48.418;10.074;2022-08-21T15:38:33;28.80;55.50
1175;DHT22;576;48.418;10.074;2022-08-21T15:41:05;28.90;55.30
1175;DHT22;576;48.418;10.074;2022-08-21T15:43:39;28.90;54.20
1175;DHT22;576;48.418;10.074;2022-08-21T15:46:10;28.80;54.60
1175;DHT22;576;48.418;10.074;2022-08-21T15:48:41;28.70;54.60
1175;DHT22;576;48.418;10.074;2022-08-21T15:51:10;28.70;55.30
1175;DHT22;576;48.418;10.074;2022-08-21T15:53:39;28.70;55.50
1175;DHT22;576;48.418;10.074;2022-08-21T15:56:17;28.70;55.70
1175;DHT22;576;48.418;10.074;2022-08-21T15:58:48;28.70;55.70
1175;DHT22;576;48.418;10.074;2022-08-21T16:01:16;28.70;56.10
1175;DHT22;576;48.418;10.074;2022-08-21T16:03:49;28.70;56.20
1175;DHT22;576;48.418;10.074;2022-08-21T16:06:21;28.70;56.60
1175;DHT22;576;48.418;10.074;2022-08-21T16:09:10;28.80;56.20
1175;DHT22;576;48.418;10.074;2022-08-21T16:11:39;28.80;56.80
1175;DHT22;576;48.418;10.074;2022-08-21T16:14:07;28.80;57.10
1175;DHT22;576;48.418;10.074;2022-08-21T16:16:37;28.80;57.20
1175;DHT22;576;48.418;10.074;2022-08-21T16:19:07;28.70;57.60
1175;DHT22;576;48.418;10.074;2022-08-21T16:21:36;28.80;57.60
1175;DHT22;576;48.418;10.074;2022-08-21T16:24:04;28.80;56.50
1175;DHT22;576;48.418;10.074;2022-08-21T16:26:33;28.80;55.40
1175;DHT22;576;48.418;10.074;2022-08-21T16:29:01;28.90;57.00
1175;DHT22;576;48.418;10.074;2022-08-21T16:31:31;28.90;56.70
1175;DHT22;576;48.418;10.074;2022-08-21T16:34:00;28.90;57.40
1175;DHT22;576;48.418;10.074;2022-08-21T16:36:30;28.90;57.10